createdAt,value
2022-10-31T00:02:44.396Z,36.68
2022-10-31T00:07:51.512Z,36.52
2022-10-31T00:12:59.144Z,36.58
2022-10-31T00:18:05.942Z,36.49
2022-10-31T00:23:13.133Z,36.55
2022-10-31T00:28:20.439Z,36.80
2022-10-31T00:33:27.547Z,36.85
2022-10-31T00:38:34.752Z,37.03
2022-10-31T00:43:41.991Z,37.10
2022-10-31T00:48:49.248Z,37.12
2022-10-31T00:53:56.476Z,37.11
2022-10-31T00:59:03.702Z,37.06
2022-10-31T01:04:10.992Z,37.06
2022-10-31T01:09:18.153Z,37.05
2022-10-31T01:14:25.379Z,37.04
2022-10-31T01:19:32.606Z,37.00
2022-10-31T01:24:39.804Z,36.94
2022-10-31T01:29:47.051Z,37.07
2022-10-31T01:34:54.271Z,37.06
2022-10-31T01:40:01.493Z,37.03
2022-10-31T01:45:08.709Z,36.98
2022-10-31T01:50:15.941Z,36.94
2022-10-31T01:55:25.226Z,36.83
2022-10-31T02:00:30.246Z,36.86
2022-10-31T02:05:37.475Z,36.87
2022-10-31T02:10:44.669Z,36.81
2022-10-31T02:15:51.859Z,36.80
2022-10-31T02:20:59.098Z,36.75
2022-10-31T02:26:06.306Z,36.69
2022-10-31T02:31:13.561Z,36.66
2022-10-31T02:36:20.848Z,36.59
2022-10-31T02:41:28.116Z,36.56
2022-10-31T02:46:35.312Z,36.55
2022-10-31T02:51:42.650Z,36.52
2022-10-31T02:56:50.105Z,36.51
2022-10-31T03:01:57.353Z,36.42
2022-10-31T03:07:04.541Z,36.42
2022-10-31T03:12:11.728Z,36.35
2022-10-31T03:17:18.993Z,36.34
2022-10-31T03:22:26.231Z,36.32
2022-10-31T03:27:34.175Z,36.24
2022-10-31T03:32:41.340Z,36.16
2022-10-31T03:37:48.554Z,36.08
2022-10-31T03:42:55.764Z,36.07
2022-10-31T03:48:03.203Z,35.97
2022-10-31T03:53:10.188Z,35.93
2022-10-31T03:58:17.413Z,35.93
2022-10-31T04:03:24.548Z,35.88
2022-10-31T04:08:31.820Z,35.75
2022-10-31T04:13:38.982Z,35.75
2022-10-31T04:18:46.185Z,35.66
2022-10-31T04:23:53.393Z,35.69
2022-10-31T04:29:00.596Z,35.58
2022-10-31T04:34:07.804Z,35.54
2022-10-31T04:39:15.031Z,35.52
2022-10-31T04:44:22.187Z,35.48
2022-10-31T04:49:29.411Z,35.47
2022-10-31T04:54:36.618Z,35.48
2022-10-31T04:59:43.767Z,35.47
2022-10-31T05:04:50.960Z,35.42
2022-10-31T05:09:58.168Z,35.47
2022-10-31T05:15:05.335Z,35.40
2022-10-31T05:20:12.505Z,35.36
2022-10-31T05:25:19.764Z,35.35
2022-10-31T05:30:26.943Z,35.33
2022-10-31T05:35:34.178Z,35.29
2022-10-31T05:40:41.377Z,35.25
2022-10-31T05:45:48.561Z,35.25
2022-10-31T05:50:55.707Z,35.18
2022-10-31T05:56:02.991Z,35.22
2022-10-31T06:01:10.297Z,35.12
2022-10-31T06:06:17.389Z,35.11
2022-10-31T06:11:24.627Z,35.05
2022-10-31T06:16:31.807Z,34.95
2022-10-31T06:21:39.067Z,34.92
2022-10-31T06:26:46.225Z,34.88
2022-10-31T06:31:53.370Z,34.88
2022-10-31T06:37:00.613Z,34.79
2022-10-31T06:42:07.856Z,34.85
2022-10-31T06:47:15.050Z,34.79
2022-10-31T06:52:22.200Z,34.78
2022-10-31T06:57:29.412Z,34.75
2022-10-31T07:02:36.531Z,34.81
2022-10-31T07:07:43.771Z,34.78
2022-10-31T07:12:50.941Z,34.88
2022-10-31T07:17:58.148Z,34.77
2022-10-31T07:23:05.862Z,34.82
2022-10-31T07:28:12.539Z,34.79
2022-10-31T07:33:19.763Z,34.84
2022-10-31T07:38:26.974Z,34.77
2022-10-31T07:43:34.254Z,34.73
2022-10-31T07:48:41.466Z,34.76
2022-10-31T07:53:48.656Z,34.88
2022-10-31T07:58:55.877Z,35.17
2022-10-31T08:04:03.030Z,34.94
2022-10-31T08:09:10.250Z,34.98
2022-10-31T08:14:17.735Z,34.94
2022-10-31T08:19:24.923Z,34.87
2022-10-31T08:24:32.165Z,34.93
2022-10-31T08:29:39.316Z,34.92
2022-10-31T08:34:46.532Z,34.89
2022-10-31T08:39:53.747Z,34.90
2022-10-31T08:45:01.008Z,34.81
2022-10-31T08:50:08.154Z,34.82
2022-10-31T08:55:15.376Z,34.73
2022-10-31T09:00:22.707Z,35.07
2022-10-31T09:05:29.927Z,35.89
2022-10-31T09:10:37.046Z,35.11
2022-10-31T09:15:44.318Z,35.22
2022-10-31T09:20:51.500Z,35.38
2022-10-31T09:25:58.714Z,35.55
2022-10-31T09:31:05.944Z,35.72
2022-10-31T09:36:13.109Z,35.94
2022-10-31T09:41:21.373Z,36.30
2022-10-31T09:46:28.633Z,36.42
2022-10-31T09:51:35.836Z,36.96
2022-10-31T09:56:43.079Z,36.21
2022-10-31T10:01:50.560Z,36.53
2022-10-31T10:06:58.989Z,36.68
2022-10-31T10:12:06.197Z,36.97
2022-10-31T10:17:13.452Z,37.22
2022-10-31T10:22:20.572Z,37.34
2022-10-31T10:27:27.849Z,37.41
2022-10-31T10:32:35.238Z,37.80
2022-10-31T10:37:42.398Z,38.48
2022-10-31T10:42:49.626Z,37.80
2022-10-31T10:47:57.183Z,38.31
2022-10-31T10:53:04.183Z,37.78
2022-10-31T10:58:11.391Z,37.89
2022-10-31T11:03:18.656Z,37.80
2022-10-31T11:08:27.546Z,38.61
2022-10-31T11:13:33.052Z,37.79
2022-10-31T11:18:40.366Z,38.16
2022-10-31T11:23:47.463Z,38.52
2022-10-31T11:28:54.670Z,38.54
2022-10-31T11:34:01.861Z,38.54
2022-10-31T11:39:09.067Z,38.14
2022-10-31T11:44:16.298Z,38.58
2022-10-31T11:49:23.512Z,38.47
2022-10-31T11:54:30.705Z,38.56
2022-10-31T11:59:37.902Z,38.54
2022-10-31T12:04:45.158Z,38.29
2022-10-31T12:09:52.304Z,38.36
2022-10-31T12:14:59.531Z,38.32
2022-10-31T12:20:06.737Z,38.26
2022-10-31T12:25:13.915Z,38.19
2022-10-31T12:30:21.116Z,38.23
2022-10-31T12:35:28.387Z,38.34
2022-10-31T12:40:35.547Z,38.09
2022-10-31T12:45:42.790Z,38.28
2022-10-31T12:50:50.197Z,38.11
2022-10-31T12:55:57.348Z,38.19
2022-10-31T13:01:04.760Z,38.28
2022-10-31T13:06:11.809Z,38.26
2022-10-31T13:11:19.024Z,38.29
2022-10-31T13:16:26.174Z,38.33
2022-10-31T13:21:33.414Z,38.43
2022-10-31T13:26:40.582Z,38.40
2022-10-31T13:31:47.831Z,38.39
2022-10-31T13:36:55.138Z,38.35
2022-10-31T13:42:02.331Z,38.42
2022-10-31T13:47:09.562Z,38.42
2022-10-31T13:52:16.777Z,38.39
2022-10-31T13:57:23.964Z,38.48
2022-10-31T14:02:31.188Z,38.43
2022-10-31T14:07:38.349Z,38.47
2022-10-31T14:12:45.495Z,38.57
2022-10-31T14:17:52.728Z,38.45
2022-10-31T14:28:07.159Z,38.38
2022-10-31T14:33:14.356Z,38.40
2022-10-31T14:38:21.575Z,38.47
2022-10-31T14:43:28.779Z,38.37
2022-10-31T14:48:35.993Z,38.52
2022-10-31T14:53:43.220Z,38.43
2022-10-31T14:58:50.403Z,38.35
2022-10-31T15:04:21.976Z,38.42
2022-10-31T15:09:05.502Z,38.58
2022-10-31T15:14:12.822Z,38.49
2022-10-31T15:19:19.938Z,38.52
2022-10-31T15:24:27.145Z,38.38
2022-10-31T15:29:34.325Z,38.37
2022-10-31T15:34:41.531Z,38.54
2022-10-31T15:39:48.793Z,38.46
2022-10-31T15:44:56.025Z,38.46
2022-10-31T15:50:03.249Z,38.57
2022-10-31T15:55:10.456Z,38.45
2022-10-31T16:00:17.668Z,38.58
2022-10-31T16:05:24.884Z,38.54
2022-10-31T16:10:32.093Z,38.61
2022-10-31T16:15:39.257Z,38.58
2022-10-31T16:20:46.473Z,38.48
2022-10-31T16:25:53.697Z,38.55
2022-10-31T16:31:00.875Z,38.55
2022-10-31T16:36:22.710Z,38.52
2022-10-31T16:41:15.312Z,38.57
2022-10-31T16:46:22.552Z,38.52
2022-10-31T16:51:29.754Z,38.38
2022-10-31T16:56:37.044Z,38.41
2022-10-31T17:01:44.307Z,38.33
2022-10-31T17:06:51.435Z,38.41
2022-10-31T17:11:58.650Z,38.39
2022-10-31T17:17:05.809Z,39.43
2022-10-31T17:22:13.020Z,39.71
2022-10-31T17:27:21.226Z,39.06
2022-10-31T17:32:28.577Z,38.91
2022-10-31T17:37:36.165Z,38.93
2022-10-31T17:42:44.624Z,38.99
2022-10-31T17:47:52.213Z,38.84
2022-10-31T17:53:00.208Z,38.86
2022-10-31T17:58:07.160Z,38.80
2022-10-31T18:03:14.553Z,39.02
2022-10-31T18:08:21.877Z,39.20
2022-10-31T18:13:29.491Z,39.07
2022-10-31T18:18:37.096Z,39.04
2022-10-31T18:23:44.529Z,39.17
2022-10-31T18:28:52.028Z,39.31
2022-10-31T18:33:59.717Z,39.60
2022-10-31T18:39:07.112Z,39.73
2022-10-31T18:44:14.452Z,39.45
2022-10-31T18:49:21.948Z,39.67
2022-10-31T18:54:29.252Z,39.76
2022-10-31T18:59:36.815Z,39.61
2022-10-31T19:04:44.173Z,39.71
2022-10-31T19:09:52.967Z,39.35
2022-10-31T19:15:00.662Z,39.50
2022-10-31T19:20:07.911Z,39.61
2022-10-31T19:25:15.170Z,39.52
2022-10-31T19:30:22.582Z,39.36
2022-10-31T19:35:29.955Z,39.40
2022-10-31T19:40:37.180Z,39.47
2022-10-31T19:45:44.706Z,39.44
2022-10-31T19:50:57.646Z,39.34
2022-10-31T19:56:00.017Z,39.39
2022-10-31T20:01:08.336Z,39.17
2022-10-31T20:06:15.653Z,38.91
2022-10-31T20:11:23.875Z,38.89
2022-10-31T20:16:31.315Z,38.00
2022-10-31T20:21:38.662Z,38.69
2022-10-31T20:26:45.935Z,38.48
2022-10-31T20:31:53.442Z,38.57
2022-10-31T20:37:00.790Z,38.33
2022-10-31T20:42:08.011Z,38.58
2022-10-31T20:47:15.463Z,38.53
2022-10-31T20:52:23.058Z,38.60
2022-10-31T20:57:30.371Z,38.61
2022-10-31T21:02:37.671Z,38.74
2022-10-31T21:07:44.915Z,38.75
2022-10-31T21:12:52.040Z,38.67
2022-10-31T21:17:59.415Z,38.64
2022-10-31T21:23:06.612Z,38.53
2022-10-31T21:28:13.872Z,38.54
2022-10-31T21:33:21.167Z,38.60
2022-10-31T21:38:28.322Z,38.84
2022-10-31T21:43:35.517Z,38.92
2022-10-31T21:48:42.722Z,38.75
2022-10-31T21:53:49.887Z,38.82
2022-10-31T21:58:57.130Z,38.93
2022-10-31T22:04:04.415Z,39.05
2022-10-31T22:09:11.595Z,38.78
2022-10-31T22:14:18.789Z,38.70
2022-10-31T22:19:26.090Z,38.71
2022-10-31T22:24:33.281Z,38.65
2022-10-31T22:29:40.498Z,38.71
2022-10-31T22:34:47.758Z,38.79
2022-10-31T22:39:55.299Z,38.77
2022-10-31T22:45:02.544Z,38.84
2022-10-31T22:50:09.818Z,38.97
2022-10-31T22:55:17.001Z,38.97
2022-10-31T23:00:24.214Z,39.49
2022-10-31T23:05:31.463Z,39.49
2022-10-31T23:10:38.634Z,39.61
2022-10-31T23:15:45.815Z,39.48
2022-10-31T23:20:53.050Z,39.39
2022-10-31T23:26:00.237Z,39.20
2022-10-31T23:31:07.433Z,38.99
2022-10-31T23:36:14.708Z,38.69
2022-10-31T23:41:21.859Z,38.56
2022-10-31T23:46:29.067Z,38.48
2022-10-31T23:51:36.275Z,38.51
2022-10-31T23:56:43.475Z,38.40
